sensor_id;sensor_type;location;lat;lon;timestamp;pressure;altitude;pressure_sealevel;temperature;humidity
40708;BME280;26392;42.696;23.350;2022-11-25T00:00:09;95066.31;;;6.20;100.00
40708;BME280;26392;42.696;23.350;2022-11-25T00:02:35;95067.81;;;6.16;100.00
40708;BME280;26392;42.696;23.350;2022-11-25T00:05:00;95071.38;;;6.16;100.00
40708;BME280;26392;42.696;23.350;2022-11-25T00:07:26;95078.28;;;6.12;100.00
40708;BME280;26392;42.696;23.350;2022-11-25T00:09:51;95101.13;;;6.16;100.00
40708;BME280;26392;42.696;23.350;2022-11-25T00:12:16;95095.72;;;6.16;100.00
40708;BME280;26392;42.696;23.350;2022-11-25T00:14:42;95088.88;;;6.14;100.00
40708;BME280;26392;42.696;23.350;2022-11-25T00:17:07;95097.81;;;6.14;100.00
40708;BME280;26392;42.696;23.350;2022-11-25T00:19:32;95104.41;;;6.18;100.00
40708;BME280;26392;42.696;23.350;2022-11-25T00:21:58;95096.06;;;6.20;100.00
40708;BME280;26392;42.696;23.350;2022-11-25T00:24:23;95111.56;;;6.24;100.00
40708;BME280;26392;42.696;23.350;2022-11-25T00:26:48;95100.06;;;6.29;100.00
40708;BME280;26392;42.696;23.350;2022-11-25T00:29:14;95097.63;;;6.27;100.00
40708;BME280;26392;42.696;23.350;2022-11-25T00:31:40;95107.84;;;6.25;100.00
40708;BME280;26392;42.696;23.350;2022-11-25T00:34:06;95096.75;;;6.27;100.00
40708;BME280;26392;42.696;23.350;2022-11-25T00:36:34;95108.66;;;6.26;100.00
40708;BME280;26392;42.696;23.350;2022-11-25T00:39:18;95107.59;;;6.27;100.00
40708;BME280;26392;42.696;23.350;2022-11-25T00:41:45;95108.53;;;6.33;100.00
40708;BME280;26392;42.696;23.350;2022-11-25T00:44:29;95104.41;;;6.30;100.00
40708;BME280;26392;42.696;23.350;2022-11-25T00:47:12;95100.06;;;6.29;100.00
40708;BME280;26392;42.696;23.350;2022-11-25T00:49:39;95101.81;;;6.23;100.00
40708;BME280;26392;42.696;23.350;2022-11-25T00:52:06;95100.28;;;6.16;100.00
40708;BME280;26392;42.696;23.350;2022-11-25T00:54:31;95101.00;;;6.11;100.00
40708;BME280;26392;42.696;23.350;2022-11-25T00:56:57;95106.75;;;6.15;100.00
40708;BME280;26392;42.696;23.350;2022-11-25T00:59:23;95107.56;;;6.15;100.00
40708;BME280;26392;42.696;23.350;2022-11-25T01:01:48;95105.94;;;6.14;100.00
40708;BME280;26392;42.696;23.350;2022-11-25T01:04:14;95116.28;;;6.17;100.00
40708;BME280;26392;42.696;23.350;2022-11-25T01:06:40;95098.63;;;6.15;100.00
40708;BME280;26392;42.696;23.350;2022-11-25T01:09:07;95101.94;;;6.17;100.00
40708;BME280;26392;42.696;23.350;2022-11-25T01:11:33;95098.16;;;6.18;100.00
40708;BME280;26392;42.696;23.350;2022-11-25T01:13:58;95108.31;;;6.22;100.00
40708;BME280;26392;42.696;23.350;2022-11-25T01:16:24;95111.00;;;6.22;100.00
40708;BME280;26392;42.696;23.350;2022-11-25T01:18:50;95108.53;;;6.21;100.00
40708;BME280;26392;42.696;23.350;2022-11-25T01:23:46;95105.34;;;6.24;100.00
40708;BME280;26392;42.696;23.350;2022-11-25T01:26:15;95107.47;;;6.22;100.00
40708;BME280;26392;42.696;23.350;2022-11-25T01:28:41;95105.00;;;6.20;100.00
40708;BME280;26392;42.696;23.350;2022-11-25T01:31:12;95097.00;;;6.25;100.00
40708;BME280;26392;42.696;23.350;2022-11-25T01:33:39;95094.66;;;6.29;100.00
40708;BME280;26392;42.696;23.350;2022-11-25T01:36:06;95099.47;;;6.27;100.00
40708;BME280;26392;42.696;23.350;2022-11-25T01:38:34;95096.75;;;6.27;100.00
40708;BME280;26392;42.696;23.350;2022-11-25T01:41:00;95095.72;;;6.28;100.00
40708;BME280;26392;42.696;23.350;2022-11-25T01:43:26;95088.19;;;6.30;100.00
40708;BME280;26392;42.696;23.350;2022-11-25T01:45:54;95078.44;;;6.29;100.00
40708;BME280;26392;42.696;23.350;2022-11-25T01:48:28;95087.97;;;6.32;100.00
40708;BME280;26392;42.696;23.350;2022-11-25T01:50:56;95080.44;;;6.34;100.00
40708;BME280;26392;42.696;23.350;2022-11-25T01:53:22;95078.69;;;6.39;100.00
40708;BME280;26392;42.696;23.350;2022-11-25T01:55:52;95073.88;;;6.41;100.00
40708;BME280;26392;42.696;23.350;2022-11-25T01:58:33;95072.78;;;6.42;100.00
40708;BME280;26392;42.696;23.350;2022-11-25T02:01:00;95073.00;;;6.41;100.00
40708;BME280;26392;42.696;23.350;2022-11-25T02:03:31;95075.25;;;6.44;100.00
40708;BME280;26392;42.696;23.350;2022-11-25T02:06:08;95080.44;;;6.45;100.00
40708;BME280;26392;42.696;23.350;2022-11-25T02:08:36;95093.50;;;6.48;100.00
40708;BME280;26392;42.696;23.350;2022-11-25T02:11:02;95087.88;;;6.50;99.95
40708;BME280;26392;42.696;23.350;2022-11-25T02:13:29;95095.84;;;6.45;100.00
40708;BME280;26392;42.696;23.350;2022-11-25T02:15:55;95090.19;;;6.46;99.39
40708;BME280;26392;42.696;23.350;2022-11-25T02:18:21;95094.78;;;6.46;99.56
40708;BME280;26392;42.696;23.350;2022-11-25T02:20:46;95100.09;;;6.53;99.70
40708;BME280;26392;42.696;23.350;2022-11-25T02:23:55;95089.28;;;6.53;98.98
40708;BME280;26392;42.696;23.350;2022-11-25T02:26:23;95103.03;;;6.51;98.31
40708;BME280;26392;42.696;23.350;2022-11-25T02:28:49;95107.63;;;6.50;98.36
40708;BME280;26392;42.696;23.350;2022-11-25T02:31:21;95099.97;;;6.47;98.13
40708;BME280;26392;42.696;23.350;2022-11-25T02:33:47;95098.44;;;6.40;98.03
40708;BME280;26392;42.696;23.350;2022-11-25T02:36:15;95103.97;;;6.45;97.83
40708;BME280;26392;42.696;23.350;2022-11-25T02:38:44;95106.44;;;6.35;97.68
40708;BME280;26392;42.696;23.350;2022-11-25T02:41:15;95109.47;;;6.38;97.81
40708;BME280;26392;42.696;23.350;2022-11-25T02:43:42;95104.91;;;6.39;97.13
40708;BME280;26392;42.696;23.350;2022-11-25T02:46:12;95099.94;;;6.36;96.90
40708;BME280;26392;42.696;23.350;2022-11-25T02:48:39;95095.84;;;6.33;96.31
40708;BME280;26392;42.696;23.350;2022-11-25T02:51:06;95106.78;;;6.26;96.86
40708;BME280;26392;42.696;23.350;2022-11-25T02:53:32;95113.38;;;6.31;96.84
40708;BME280;26392;42.696;23.350;2022-11-25T02:55:58;95106.44;;;6.35;96.60
40708;BME280;26392;42.696;23.350;2022-11-25T02:58:23;95110.06;;;6.28;96.39
40708;BME280;26392;42.696;23.350;2022-11-25T03:00:49;95113.25;;;6.37;96.11
40708;BME280;26392;42.696;23.350;2022-11-25T03:03:14;95112.91;;;6.34;96.90
40708;BME280;26392;42.696;23.350;2022-11-25T03:05:40;95101.84;;;6.35;96.55
40708;BME280;26392;42.696;23.350;2022-11-25T03:08:06;95122.06;;;6.33;97.05
40708;BME280;26392;42.696;23.350;2022-11-25T03:10:32;95115.00;;;6.32;97.82
40708;BME280;26392;42.696;23.350;2022-11-25T03:12:57;95121.03;;;6.34;98.05
40708;BME280;26392;42.696;23.350;2022-11-25T03:15:23;95114.66;;;6.28;99.23
40708;BME280;26392;42.696;23.350;2022-11-25T03:17:49;95118.88;;;6.24;100.00
40708;BME280;26392;42.696;23.350;2022-11-25T03:20:15;95118.41;;;6.27;100.00
40708;BME280;26392;42.696;23.350;2022-11-25T03:22:42;95118.19;;;6.17;100.00
40708;BME280;26392;42.696;23.350;2022-11-25T03:25:09;95121.91;;;6.16;100.00
40708;BME280;26392;42.696;23.350;2022-11-25T03:27:35;95116.97;;;6.13;100.00
40708;BME280;26392;42.696;23.350;2022-11-25T03:30:00;95117.09;;;6.06;100.00
40708;BME280;26392;42.696;23.350;2022-11-25T03:32:26;95133.44;;;5.99;100.00
40708;BME280;26392;42.696;23.350;2022-11-25T03:34:52;95125.88;;;6.01;100.00
40708;BME280;26392;42.696;23.350;2022-11-25T03:37:17;95120.59;;;5.95;100.00
40708;BME280;26392;42.696;23.350;2022-11-25T03:39:44;95131.16;;;5.96;100.00
40708;BME280;26392;42.696;23.350;2022-11-25T03:42:09;95139.59;;;5.88;100.00
40708;BME280;26392;42.696;23.350;2022-11-25T03:44:34;95145.69;;;5.83;100.00
40708;BME280;26392;42.696;23.350;2022-11-25T03:47:00;95131.81;;;5.80;100.00
40708;BME280;26392;42.696;23.350;2022-11-25T03:49:25;95147.06;;;5.74;100.00
40708;BME280;26392;42.696;23.350;2022-11-25T03:51:50;95147.75;;;5.70;100.00
40708;BME280;26392;42.696;23.350;2022-11-25T03:54:16;95150.53;;;5.63;100.00
40708;BME280;26392;42.696;23.350;2022-11-25T03:56:41;95149.47;;;5.64;100.00
40708;BME280;26392;42.696;23.350;2022-11-25T03:59:07;95163.19;;;5.63;100.00
40708;BME280;26392;42.696;23.350;2022-11-25T04:01:32;95168.03;;;5.60;100.00
40708;BME280;26392;42.696;23.350;2022-11-25T04:03:58;95162.47;;;5.55;100.00
40708;BME280;26392;42.696;23.350;2022-11-25T04:06:23;95172.06;;;5.51;100.00
40708;BME280;26392;42.696;23.350;2022-11-25T04:08:49;95167.75;;;5.50;100.00
40708;BME280;26392;42.696;23.350;2022-11-25T04:11:15;95169.09;;;5.41;100.00
40708;BME280;26392;42.696;23.350;2022-11-25T04:13:41;95176.59;;;5.39;100.00
40708;BME280;26392;42.696;23.350;2022-11-25T04:16:16;95178.25;;;5.40;100.00
40708;BME280;26392;42.696;23.350;2022-11-25T04:18:44;95171.66;;;5.36;100.00
40708;BME280;26392;42.696;23.350;2022-11-25T04:21:09;95181.03;;;5.33;100.00
40708;BME280;26392;42.696;23.350;2022-11-25T04:23:34;95182.91;;;5.33;100.00
40708;BME280;26392;42.696;23.350;2022-11-25T04:26:00;95185.00;;;5.31;100.00
40708;BME280;26392;42.696;23.350;2022-11-25T04:28:25;95189.75;;;5.35;100.00
40708;BME280;26392;42.696;23.350;2022-11-25T04:30:50;95195.97;;;5.36;100.00
40708;BME280;26392;42.696;23.350;2022-11-25T04:33:16;95196.56;;;5.38;100.00
40708;BME280;26392;42.696;23.350;2022-11-25T04:35:41;95199.03;;;5.39;100.00
40708;BME280;26392;42.696;23.350;2022-11-25T04:38:07;95198.22;;;5.39;100.00
40708;BME280;26392;42.696;23.350;2022-11-25T04:40:32;95209.03;;;5.39;100.00
40708;BME280;26392;42.696;23.350;2022-11-25T04:42:57;95217.34;;;5.37;100.00
40708;BME280;26392;42.696;23.350;2022-11-25T04:45:23;95224.03;;;5.35;100.00
40708;BME280;26392;42.696;23.350;2022-11-25T04:47:48;95223.50;;;5.26;100.00
40708;BME280;26392;42.696;23.350;2022-11-25T04:50:16;95220.41;;;5.23;100.00
40708;BME280;26392;42.696;23.350;2022-11-25T04:52:43;95227.03;;;5.27;100.00
40708;BME280;26392;42.696;23.350;2022-11-25T04:55:09;95231.38;;;5.28;100.00
40708;BME280;26392;42.696;23.350;2022-11-25T04:57:34;95238.22;;;5.30;100.00
40708;BME280;26392;42.696;23.350;2022-11-25T04:59:59;95234.91;;;5.28;100.00
40708;BME280;26392;42.696;23.350;2022-11-25T05:02:26;95240.59;;;5.20;100.00
40708;BME280;26392;42.696;23.350;2022-11-25T05:04:54;95241.56;;;5.26;100.00
40708;BME280;26392;42.696;23.350;2022-11-25T05:07:21;95243.09;;;5.22;100.00
40708;BME280;26392;42.696;23.350;2022-11-25T05:09:47;95246.41;;;5.24;100.00
40708;BME280;26392;42.696;23.350;2022-11-25T05:12:15;95255.69;;;5.28;100.00
40708;BME280;26392;42.696;23.350;2022-11-25T05:14:41;95257.56;;;5.27;100.00
40708;BME280;26392;42.696;23.350;2022-11-25T05:17:09;95261.72;;;5.30;100.00
40708;BME280;26392;42.696;23.350;2022-11-25T05:19:36;95258.56;;;5.33;100.00
40708;BME280;26392;42.696;23.350;2022-11-25T05:22:02;95264.34;;;5.36;100.00
40708;BME280;26392;42.696;23.350;2022-11-25T05:24:27;95260.56;;;5.37;100.00
40708;BME280;26392;42.696;23.350;2022-11-25T05:26:53;95265.69;;;5.46;100.00
40708;BME280;26392;42.696;23.350;2022-11-25T05:29:18;95274.84;;;5.45;100.00
40708;BME280;26392;42.696;23.350;2022-11-25T05:31:43;95278.53;;;5.50;100.00
40708;BME280;26392;42.696;23.350;2022-11-25T05:34:09;95286.81;;;5.55;100.00
40708;BME280;26392;42.696;23.350;2022-11-25T05:36:34;95290.53;;;5.54;100.00
40708;BME280;26392;42.696;23.350;2022-11-25T05:39:01;95283.19;;;5.61;100.00
40708;BME280;26392;42.696;23.350;2022-11-25T05:41:26;95288.31;;;5.70;100.00
40708;BME280;26392;42.696;23.350;2022-11-25T05:43:52;95291.38;;;5.73;100.00
40708;BME280;26392;42.696;23.350;2022-11-25T05:46:18;95299.63;;;5.78;100.00
40708;BME280;26392;42.696;23.350;2022-11-25T05:48:43;95305.41;;;5.82;100.00
40708;BME280;26392;42.696;23.350;2022-11-25T05:51:09;95299.13;;;5.88;100.00
40708;BME280;26392;42.696;23.350;2022-11-25T05:53:35;95299.50;;;5.92;100.00
40708;BME280;26392;42.696;23.350;2022-11-25T05:56:03;95305.28;;;5.95;100.00
40708;BME280;26392;42.696;23.350;2022-11-25T05:58:30;95314.47;;;5.94;100.00
40708;BME280;26392;42.696;23.350;2022-11-25T06:00:56;95315.34;;;6.07;100.00
40708;BME280;26392;42.696;23.350;2022-11-25T06:03:26;95311.59;;;6.08;100.00
40708;BME280;26392;42.696;23.350;2022-11-25T06:05:55;95315.88;;;6.15;100.00
40708;BME280;26392;42.696;23.350;2022-11-25T06:08:20;95331.66;;;6.18;100.00
40708;BME280;26392;42.696;23.350;2022-11-25T06:10:45;95327.44;;;6.22;100.00
40708;BME280;26392;42.696;23.350;2022-11-25T06:13:11;95338.19;;;6.29;100.00
40708;BME280;26392;42.696;23.350;2022-11-25T06:15:40;95343.59;;;6.29;100.00
40708;BME280;26392;42.696;23.350;2022-11-25T06:18:07;95339.75;;;6.37;100.00
40708;BME280;26392;42.696;23.350;2022-11-25T06:20:32;95337.88;;;6.37;100.00
40708;BME280;26392;42.696;23.350;2022-11-25T06:22:57;95341.47;;;6.31;100.00
40708;BME280;26392;42.696;23.350;2022-11-25T06:25:24;95347.72;;;6.32;100.00
40708;BME280;26392;42.696;23.350;2022-11-25T06:27:49;95344.81;;;6.33;100.00
40708;BME280;26392;42.696;23.350;2022-11-25T06:30:15;95351.91;;;6.46;100.00
40708;BME280;26392;42.696;23.350;2022-11-25T06:32:41;95352.00;;;6.39;100.00
40708;BME280;26392;42.696;23.350;2022-11-25T06:35:07;95354.47;;;6.41;100.00
40708;BME280;26392;42.696;23.350;2022-11-25T06:37:33;95354.84;;;6.44;100.00
40708;BME280;26392;42.696;23.350;2022-11-25T06:39:58;95356.53;;;6.57;100.00
40708;BME280;26392;42.696;23.350;2022-11-25T06:42:23;95379.03;;;6.58;100.00
40708;BME280;26392;42.696;23.350;2022-11-25T06:44:49;95378.56;;;6.61;99.92
40708;BME280;26392;42.696;23.350;2022-11-25T06:47:14;95372.78;;;6.57;99.30
40708;BME280;26392;42.696;23.350;2022-11-25T06:49:40;95383.53;;;6.64;98.80
40708;BME280;26392;42.696;23.350;2022-11-25T06:52:05;95392.25;;;6.66;97.81
40708;BME280;26392;42.696;23.350;2022-11-25T06:54:31;95394.38;;;6.64;98.43
40708;BME280;26392;42.696;23.350;2022-11-25T06:56:57;95393.66;;;6.68;98.72
40708;BME280;26392;42.696;23.350;2022-11-25T06:59:22;95393.97;;;6.79;98.42
40708;BME280;26392;42.696;23.350;2022-11-25T07:01:48;95400.41;;;6.78;98.74
40708;BME280;26392;42.696;23.350;2022-11-25T07:04:13;95407.50;;;6.79;98.30
40708;BME280;26392;42.696;23.350;2022-11-25T07:06:39;95397.50;;;6.79;97.72
40708;BME280;26392;42.696;23.350;2022-11-25T07:09:04;95412.09;;;6.78;97.72
40708;BME280;26392;42.696;23.350;2022-11-25T07:11:32;95416.59;;;6.84;97.03
40708;BME280;26392;42.696;23.350;2022-11-25T07:14:00;95413.09;;;6.95;97.82
40708;BME280;26392;42.696;23.350;2022-11-25T07:16:26;95416.16;;;6.99;95.50
40708;BME280;26392;42.696;23.350;2022-11-25T07:18:53;95409.59;;;7.07;95.20
40708;BME280;26392;42.696;23.350;2022-11-25T07:21:21;95419.41;;;7.20;93.23
40708;BME280;26392;42.696;23.350;2022-11-25T07:23:48;95412.63;;;7.29;92.48
40708;BME280;26392;42.696;23.350;2022-11-25T07:26:17;95413.44;;;7.29;91.26
40708;BME280;26392;42.696;23.350;2022-11-25T07:28:43;95415.34;;;7.40;91.60
40708;BME280;26392;42.696;23.350;2022-11-25T07:31:15;95412.69;;;7.22;90.85
40708;BME280;26392;42.696;23.350;2022-11-25T07:33:41;95397.16;;;7.17;91.90
40708;BME280;26392;42.696;23.350;2022-11-25T07:36:09;95409.97;;;7.10;91.37
40708;BME280;26392;42.696;23.350;2022-11-25T07:38:35;95415.63;;;7.09;91.78
40708;BME280;26392;42.696;23.350;2022-11-25T07:41:06;95418.06;;;6.99;92.89
40708;BME280;26392;42.696;23.350;2022-11-25T07:43:32;95419.19;;;6.91;93.10
40708;BME280;26392;42.696;23.350;2022-11-25T07:46:15;95418.22;;;6.85;94.23
40708;BME280;26392;42.696;23.350;2022-11-25T07:48:41;95419.00;;;6.74;95.21
40708;BME280;26392;42.696;23.350;2022-11-25T07:51:28;95419.00;;;6.74;95.62
40708;BME280;26392;42.696;23.350;2022-11-25T07:53:55;95423.50;;;6.80;95.27
40708;BME280;26392;42.696;23.350;2022-11-25T07:56:21;95424.47;;;6.86;94.98
40708;BME280;26392;42.696;23.350;2022-11-25T07:58:47;95434.47;;;6.85;93.78
40708;BME280;26392;42.696;23.350;2022-11-25T08:01:14;95428.03;;;6.86;93.76
40708;BME280;26392;42.696;23.350;2022-11-25T08:03:41;95425.22;;;6.93;93.59
40708;BME280;26392;42.696;23.350;2022-11-25T08:06:10;95422.97;;;6.90;92.76
40708;BME280;26392;42.696;23.350;2022-11-25T08:08:37;95440.25;;;6.89;92.82
40708;BME280;26392;42.696;23.350;2022-11-25T08:11:07;95426.28;;;6.92;92.71
40708;BME280;26392;42.696;23.350;2022-11-25T08:13:33;95432.56;;;7.04;96.19
40708;BME280;26392;42.696;23.350;2022-11-25T08:15:59;95439.91;;;7.15;93.15
40708;BME280;26392;42.696;23.350;2022-11-25T08:18:25;95446.16;;;7.16;90.44
40708;BME280;26392;42.696;23.350;2022-11-25T08:20:50;95436.84;;;7.12;90.10
40708;BME280;26392;42.696;23.350;2022-11-25T08:23:15;95445.28;;;7.04;90.24
40708;BME280;26392;42.696;23.350;2022-11-25T08:25:41;95439.53;;;7.12;90.84
40708;BME280;26392;42.696;23.350;2022-11-25T08:28:07;95437.78;;;7.17;90.10
40708;BME280;26392;42.696;23.350;2022-11-25T08:30:34;95431.31;;;7.18;90.01
40708;BME280;26392;42.696;23.350;2022-11-25T08:33:00;95443.00;;;7.31;89.68
40708;BME280;26392;42.696;23.350;2022-11-25T08:35:26;95454.22;;;7.34;88.83
40708;BME280;26392;42.696;23.350;2022-11-25T08:37:51;95448.56;;;7.36;86.65
40708;BME280;26392;42.696;23.350;2022-11-25T08:40:17;95453.28;;;7.40;86.88
40708;BME280;26392;42.696;23.350;2022-11-25T08:42:42;95451.28;;;7.36;87.36
40708;BME280;26392;42.696;23.350;2022-11-25T08:45:08;95460.47;;;7.35;87.96
40708;BME280;26392;42.696;23.350;2022-11-25T08:47:35;95443.38;;;7.34;87.56
40708;BME280;26392;42.696;23.350;2022-11-25T08:50:05;95444.56;;;7.38;87.18
40708;BME280;26392;42.696;23.350;2022-11-25T08:52:31;95449.38;;;7.36;86.81
40708;BME280;26392;42.696;23.350;2022-11-25T08:54:57;95440.69;;;7.34;86.13
40708;BME280;26392;42.696;23.350;2022-11-25T08:57:22;95443.38;;;7.34;86.33
40708;BME280;26392;42.696;23.350;2022-11-25T08:59:48;95453.16;;;7.35;87.11
40708;BME280;26392;42.696;23.350;2022-11-25T09:02:14;95444.69;;;7.44;86.96
40708;BME280;26392;42.696;23.350;2022-11-25T09:04:40;95446.47;;;7.50;87.50
40708;BME280;26392;42.696;23.350;2022-11-25T09:07:06;95453.56;;;7.51;89.38
40708;BME280;26392;42.696;23.350;2022-11-25T09:09:31;95451.69;;;7.63;87.69
40708;BME280;26392;42.696;23.350;2022-11-25T09:11:57;95441.06;;;7.61;84.15
40708;BME280;26392;42.696;23.350;2022-11-25T09:14:22;95456.28;;;7.62;84.97
40708;BME280;26392;42.696;23.350;2022-11-25T09:16:48;95451.56;;;7.70;82.17
40708;BME280;26392;42.696;23.350;2022-11-25T09:19:14;95459.50;;;7.71;82.01
40708;BME280;26392;42.696;23.350;2022-11-25T09:21:42;95452.19;;;7.83;83.16
40708;BME280;26392;42.696;23.350;2022-11-25T09:24:08;95445.81;;;7.90;82.87
40708;BME280;26392;42.696;23.350;2022-11-25T09:26:33;95453.72;;;7.91;82.81
40708;BME280;26392;42.696;23.350;2022-11-25T09:29:01;95448.44;;;7.96;83.91
40708;BME280;26392;42.696;23.350;2022-11-25T09:31:26;95458.00;;;7.99;83.37
40708;BME280;26392;42.696;23.350;2022-11-25T09:33:52;95453.13;;;8.01;82.65
40708;BME280;26392;42.696;23.350;2022-11-25T09:36:18;95449.94;;;7.92;82.30
40708;BME280;26392;42.696;23.350;2022-11-25T09:38:44;95462.47;;;7.93;83.15
40708;BME280;26392;42.696;23.350;2022-11-25T09:44:19;95461.28;;;8.01;82.47
40708;BME280;26392;42.696;23.350;2022-11-25T09:47:18;95454.78;;;8.14;81.69
40708;BME280;26392;42.696;23.350;2022-11-25T09:53:26;95454.31;;;8.17;78.40
40708;BME280;26392;42.696;23.350;2022-11-25T09:55:48;95455.75;;;8.19;79.50
40708;BME280;26392;42.696;23.350;2022-11-25T10:00:53;95469.44;;;8.24;79.03
40708;BME280;26392;42.696;23.350;2022-11-25T10:05:57;95463.41;;;8.22;77.86
40708;BME280;26392;42.696;23.350;2022-11-25T10:08:38;95465.19;;;8.17;77.89
40708;BME280;26392;42.696;23.350;2022-11-25T10:14:06;95457.03;;;8.05;78.99
40708;BME280;26392;42.696;23.350;2022-11-25T10:16:44;95449.47;;;7.95;79.68
40708;BME280;26392;42.696;23.350;2022-11-25T10:19:25;95456.78;;;7.83;80.45
40708;BME280;26392;42.696;23.350;2022-11-25T10:21:54;95447.47;;;7.79;80.55
40708;BME280;26392;42.696;23.350;2022-11-25T10:24:20;95442.53;;;7.76;80.99
40708;BME280;26392;42.696;23.350;2022-11-25T10:26:56;95453.13;;;7.77;81.80
40708;BME280;26392;42.696;23.350;2022-11-25T10:29:26;95428.84;;;7.71;80.96
40708;BME280;26392;42.696;23.350;2022-11-25T10:31:59;95451.00;;;7.79;81.10
40708;BME280;26392;42.696;23.350;2022-11-25T10:37:50;95451.00;;;8.03;78.92
40708;BME280;26392;42.696;23.350;2022-11-25T10:40:19;95437.09;;;7.99;77.72
40708;BME280;26392;42.696;23.350;2022-11-25T10:42:45;95457.75;;;8.00;78.39
40708;BME280;26392;42.696;23.350;2022-11-25T10:45:11;95460.91;;;8.09;77.87
40708;BME280;26392;42.696;23.350;2022-11-25T10:47:48;95446.06;;;8.12;77.12
40708;BME280;26392;42.696;23.350;2022-11-25T10:55:23;95467.06;;;8.40;75.11
40708;BME280;26392;42.696;23.350;2022-11-25T10:57:50;95454.06;;;8.54;73.62
40708;BME280;26392;42.696;23.350;2022-11-25T11:00:36;95459.81;;;8.81;73.22
40708;BME280;26392;42.696;23.350;2022-11-25T11:03:18;95453.13;;;8.71;72.44
40708;BME280;26392;42.696;23.350;2022-11-25T11:05:49;95460.81;;;8.63;73.05
40708;BME280;26392;42.696;23.350;2022-11-25T11:08:16;95462.94;;;8.61;74.10
40708;BME280;26392;42.696;23.350;2022-11-25T11:10:42;95452.06;;;8.61;74.10
40708;BME280;26392;42.696;23.350;2022-11-25T11:13:21;95476.19;;;8.57;74.68
40708;BME280;26392;42.696;23.350;2022-11-25T11:15:48;95455.16;;;8.52;75.12
40708;BME280;26392;42.696;23.350;2022-11-25T11:20:57;95453.00;;;8.66;73.90
40708;BME280;26392;42.696;23.350;2022-11-25T11:23:29;95469.84;;;8.80;74.72
40708;BME280;26392;42.696;23.350;2022-11-25T11:25:58;95464.09;;;8.65;75.12
40708;BME280;26392;42.696;23.350;2022-11-25T11:33:36;95472.28;;;8.18;78.48
40708;BME280;26392;42.696;23.350;2022-11-25T11:39:08;95465.88;;;7.89;80.37
40708;BME280;26392;42.696;23.350;2022-11-25T11:41:47;95473.19;;;7.76;82.67
40708;BME280;26392;42.696;23.350;2022-11-25T11:50:01;95479.34;;;7.53;84.97
40708;BME280;26392;42.696;23.350;2022-11-25T11:55:00;95480.69;;;7.62;83.75
40708;BME280;26392;42.696;23.350;2022-11-25T11:57:42;95481.84;;;7.55;83.18
40708;BME280;26392;42.696;23.350;2022-11-25T12:00:13;95478.53;;;7.53;85.09
40708;BME280;26392;42.696;23.350;2022-11-25T12:03:15;95492.56;;;7.50;84.96
40708;BME280;26392;42.696;23.350;2022-11-25T12:05:46;95475.47;;;7.49;85.97
40708;BME280;26392;42.696;23.350;2022-11-25T12:11:10;95490.78;;;7.44;85.74
40708;BME280;26392;42.696;23.350;2022-11-25T12:16:56;95478.06;;;7.44;87.59
40708;BME280;26392;42.696;23.350;2022-11-25T12:19:32;95481.84;;;7.55;87.98
40708;BME280;26392;42.696;23.350;2022-11-25T12:22:21;95480.44;;;7.64;86.82
40708;BME280;26392;42.696;23.350;2022-11-25T12:25:05;95477.28;;;7.67;84.70
40708;BME280;26392;42.696;23.350;2022-11-25T12:27:39;95476.22;;;7.68;84.10
40708;BME280;26392;42.696;23.350;2022-11-25T12:30:18;95485.31;;;7.74;85.57
40708;BME280;26392;42.696;23.350;2022-11-25T12:38:32;95480.94;;;7.73;85.09
40708;BME280;26392;42.696;23.350;2022-11-25T12:43:50;95474.22;;;7.75;84.41
40708;BME280;26392;42.696;23.350;2022-11-25T12:46:24;95479.75;;;7.69;84.02
40708;BME280;26392;42.696;23.350;2022-11-25T12:48:53;95486.25;;;7.68;85.02
40708;BME280;26392;42.696;23.350;2022-11-25T13:10:58;95479.91;;;7.85;82.29
40708;BME280;26392;42.696;23.350;2022-11-25T13:16:24;95474.34;;;7.80;82.60
40708;BME280;26392;42.696;23.350;2022-11-25T13:18:52;95474.94;;;7.71;82.78
40708;BME280;26392;42.696;23.350;2022-11-25T13:21:19;95465.03;;;7.76;82.43
40708;BME280;26392;42.696;23.350;2022-11-25T13:23:51;95466.56;;;7.72;82.35
40708;BME280;26392;42.696;23.350;2022-11-25T13:34:27;95472.31;;;7.64;82.83
40708;BME280;26392;42.696;23.350;2022-11-25T13:36:58;95478.47;;;7.59;82.83
40708;BME280;26392;42.696;23.350;2022-11-25T13:39:33;95477.16;;;7.62;82.56
40708;BME280;26392;42.696;23.350;2022-11-25T13:44:51;95480.69;;;7.62;82.92
40708;BME280;26392;42.696;23.350;2022-11-25T13:49:53;95475.97;;;7.58;83.02
40708;BME280;26392;42.696;23.350;2022-11-25T13:52:27;95469.94;;;7.56;82.04
40708;BME280;26392;42.696;23.350;2022-11-25T13:54:54;95488.22;;;7.49;82.15
40708;BME280;26392;42.696;23.350;2022-11-25T13:59:52;95487.25;;;7.43;82.71
40708;BME280;26392;42.696;23.350;2022-11-25T14:05:01;95487.13;;;7.38;82.48
40708;BME280;26392;42.696;23.350;2022-11-25T14:10:44;95492.63;;;7.31;82.77
40708;BME280;26392;42.696;23.350;2022-11-25T14:19:17;95498.22;;;7.18;84.48
40708;BME280;26392;42.696;23.350;2022-11-25T14:24:53;95500.66;;;7.08;85.84
40708;BME280;26392;42.696;23.350;2022-11-25T14:27:24;95509.25;;;7.05;86.44
40708;BME280;26392;42.696;23.350;2022-11-25T14:29:56;95509.94;;;7.00;86.91
40708;BME280;26392;42.696;23.350;2022-11-25T14:32:40;95506.84;;;6.97;87.38
40708;BME280;26392;42.696;23.350;2022-11-25T14:35:10;95516.69;;;6.91;87.70
40708;BME280;26392;42.696;23.350;2022-11-25T14:37:49;95504.06;;;6.85;87.92
40708;BME280;26392;42.696;23.350;2022-11-25T14:40:42;95508.31;;;6.81;88.69
40708;BME280;26392;42.696;23.350;2022-11-25T14:43:18;95513.31;;;6.77;88.80
40708;BME280;26392;42.696;23.350;2022-11-25T14:45:45;95503.41;;;6.71;89.72
40708;BME280;26392;42.696;23.350;2022-11-25T14:48:18;95512.97;;;6.73;89.91
40708;BME280;26392;42.696;23.350;2022-11-25T14:51:03;95508.81;;;6.71;90.28
40708;BME280;26392;42.696;23.350;2022-11-25T14:53:37;95514.25;;;6.71;90.97